Time;durP1;ratioP1;P1;durP2;ratioP2;P2;SDS_P1;SDS_P2;PMS_P1;PMS_P2;Temp;Humidity;BMP_temperature;BMP_pressure;BME280_temperature;BME280_humidity;BME280_pressure;Samples;Min_cycle;Max_cycle;Signal;HPM_P1;HPM_P2
2023/05/02 00:02:16;;;;;;;19.33;11.80;;;;;;;12.43;44.31;98409.28;5009923;28;20041;-72
2023/05/02 00:04:42;;;;;;;20.38;12.02;;;;;;;12.40;44.01;98404.41;5009603;28;20038;-73
2023/05/02 00:07:07;;;;;;;17.63;11.27;;;;;;;12.37;44.65;98403.09;5027302;28;20028;-72
2023/05/02 00:09:33;;;;;;;19.88;11.65;;;;;;;12.36;44.71;98406.97;5112675;28;20088;-72
2023/05/02 00:11:59;;;;;;;18.75;11.13;;;;;;;12.34;44.84;98403.72;5112585;28;20043;-72
2023/05/02 00:14:25;;;;;;;20.20;11.43;;;;;;;12.32;44.68;98404.00;5112575;28;20030;-72
2023/05/02 00:16:50;;;;;;;20.02;11.23;;;;;;;12.31;44.73;98398.84;5112553;28;20538;-72
2023/05/02 00:19:16;;;;;;;18.63;10.80;;;;;;;12.29;44.98;98387.34;5112955;28;20053;-72
2023/05/02 00:21:41;;;;;;;18.15;11.18;;;;;;;12.27;45.25;98395.88;5112414;28;20385;-72
2023/05/02 00:24:07;;;;;;;18.33;10.40;;;;;;;12.27;45.58;98398.63;5112575;28;20052;-72
2023/05/02 00:26:32;;;;;;;17.65;10.85;;;;;;;12.26;45.44;98387.94;5112437;28;20488;-72
2023/05/02 00:28:57;;;;;;;17.00;10.10;;;;;;;12.24;45.32;98388.25;5112388;28;20073;-72
2023/05/02 00:31:23;;;;;;;17.58;11.00;;;;;;;12.21;45.78;98386.94;5112515;28;20031;-72
2023/05/02 00:33:48;;;;;;;19.98;11.57;;;;;;;12.19;45.96;98385.63;5112411;28;20019;-73
2023/05/02 00:36:18;;;;;;;19.00;11.60;;;;;;;12.17;45.99;98385.91;5112411;28;20050;-71
2023/05/02 00:38:44;;;;;;;22.85;13.05;;;;;;;12.15;45.67;98390.13;5112475;28;20055;-72
2023/05/02 00:41:10;;;;;;;24.80;14.18;;;;;;;12.12;46.01;98390.72;5112673;28;20058;-72
2023/05/02 00:43:38;;;;;;;26.08;13.68;;;;;;;12.11;46.10;98386.34;5112670;28;20434;-72
2023/05/02 00:46:03;;;;;;;24.25;12.70;;;;;;;12.10;46.27;98385.53;5112413;28;20055;-72
2023/05/02 00:48:29;;;;;;;23.27;13.13;;;;;;;12.08;46.20;98387.75;5112528;28;20027;-72
2023/05/02 00:50:54;;;;;;;19.58;11.35;;;;;;;12.05;46.52;98383.72;5112204;28;20106;-71
2023/05/02 00:53:20;;;;;;;18.35;11.43;;;;;;;12.03;46.60;98383.19;5111922;28;20023;-71
2023/05/02 00:55:46;;;;;;;18.88;10.68;;;;;;;12.03;46.48;98385.94;5112143;28;20027;-72
2023/05/02 00:58:15;;;;;;;18.17;11.02;;;;;;;12.02;46.64;98372.53;5112254;28;20071;-72
2023/05/02 01:01:05;;;;;;;18.35;10.93;;;;;;;12.00;46.60;98377.53;5112194;28;20084;-72
2023/05/02 01:03:48;;;;;;;;;;;;;;;11.99;47.01;98375.88;5112291;28;20473;-72
2023/05/02 01:06:30;;;;;;;16.23;10.10;;;;;;;11.96;46.73;98380.03;5112167;28;19919;-71
2023/05/02 01:09:28;;;;;;;16.42;9.70;;;;;;;11.93;47.21;98382.59;5094047;28;20047;-72
2023/05/02 01:12:33;;;;;;;15.32;9.40;;;;;;;11.90;47.29;98382.06;5112490;28;20395;-71
2023/05/02 01:15:04;;;;;;;16.30;9.30;;;;;;;11.91;47.25;98382.88;5069876;28;20040;-71
2023/05/02 01:17:31;;;;;;;15.20;9.68;;;;;;;11.89;47.56;98383.19;5112190;28;20478;-72
2023/05/02 01:20:01;;;;;;;18.17;10.60;;;;;;;11.88;47.20;98388.97;5112979;28;20055;-70
2023/05/02 01:22:31;;;;;;;16.17;9.10;;;;;;;11.86;47.58;98375.56;5094775;28;20114;-71
2023/05/02 01:25:12;;;;;;;15.45;9.05;;;;;;;11.86;47.42;98383.81;5112885;28;20024;-71
2023/05/02 01:27:54;;;;;;;14.10;7.78;;;;;;;11.86;48.29;98386.56;5094417;28;20034;-71
2023/05/02 01:30:21;;;;;;;11.95;7.55;;;;;;;11.90;48.46;98384.81;5009619;28;20029;-72
2023/05/02 01:32:50;;;;;;;12.27;6.80;;;;;;;11.91;48.42;98380.94;5009911;28;20026;-71
2023/05/02 01:35:17;;;;;;;12.98;6.70;;;;;;;11.95;48.53;98377.59;5012831;28;20086;-72
2023/05/02 01:37:44;;;;;;;10.00;6.53;;;;;;;11.97;48.45;98378.09;5012938;28;20026;-71
2023/05/02 01:40:12;;;;;;;11.13;7.13;;;;;;;11.99;48.68;98382.19;5012793;28;20026;-72
2023/05/02 01:42:41;;;;;;;11.55;6.32;;;;;;;12.03;49.12;98385.13;5012832;28;20484;-72
2023/05/02 01:45:08;;;;;;;8.85;5.68;;;;;;;12.06;49.33;98379.00;5012535;28;20033;-71
2023/05/02 01:47:35;;;;;;;9.05;6.00;;;;;;;12.10;49.54;98385.53;5012595;28;20426;-71
2023/05/02 01:50:05;;;;;;;9.63;5.57;;;;;;;12.13;49.67;98384.09;4993079;28;20031;-71
2023/05/02 01:52:30;;;;;;;9.50;6.00;;;;;;;12.18;49.17;98378.50;4993098;28;20052;-72
2023/05/02 01:54:59;;;;;;;9.63;5.35;;;;;;;12.20;49.48;98379.00;4992991;28;20038;-71
2023/05/02 01:57:25;;;;;;;8.98;5.25;;;;;;;12.24;49.86;98373.69;4993055;28;20040;-72
2023/05/02 01:59:54;;;;;;;9.25;5.50;;;;;;;12.25;49.57;98373.38;4992933;28;20030;-71
2023/05/02 02:02:21;;;;;;;8.38;5.00;;;;;;;12.28;49.70;98377.44;4993019;28;20026;-71
2023/05/02 02:04:48;;;;;;;7.05;4.97;;;;;;;12.30;49.73;98378.75;5096520;28;20046;-71
2023/05/02 02:07:14;;;;;;;9.98;5.47;;;;;;;12.32;50.37;98379.25;5115971;28;20027;-71
2023/05/02 02:09:40;;;;;;;8.35;4.70;;;;;;;12.32;50.33;98373.75;5115875;28;20016;-71
2023/05/02 02:12:26;;;;;;;8.20;5.13;;;;;;;12.34;50.46;98376.22;5115749;28;20488;-71
2023/05/02 02:15:29;;;;;;;7.43;4.88;;;;;;;12.35;50.45;98375.09;5097481;28;20043;-72
2023/05/02 02:17:59;;;;;;;8.68;5.38;;;;;;;12.38;50.46;98374.47;5115687;28;20027;-72
2023/05/02 02:20:26;;;;;;;8.30;5.10;;;;;;;12.39;50.61;98367.03;5031777;28;20502;-72
2023/05/02 02:22:52;;;;;;;9.65;5.78;;;;;;;12.42;50.42;98370.00;5012205;28;20087;-71
2023/05/02 02:25:18;;;;;;;8.85;5.47;;;;;;;12.41;50.55;98367.53;5011993;28;20486;-72
2023/05/02 02:27:43;;;;;;;9.52;6.25;;;;;;;12.40;50.50;98374.97;5012035;28;20030;-70
2023/05/02 02:30:10;;;;;;;8.02;5.32;;;;;;;12.40;50.34;98383.22;5012223;28;20034;-71
2023/05/02 02:32:35;;;;;;;10.77;6.10;;;;;;;12.40;50.69;98368.66;5012165;28;20026;-72
2023/05/02 02:35:02;;;;;;;8.55;5.47;;;;;;;12.41;50.73;98373.88;5012027;28;20033;-71
2023/05/02 02:37:39;;;;;;;8.70;5.55;;;;;;;12.43;50.77;98376.28;5011946;28;20034;-71
2023/05/02 02:40:36;;;;;;;6.93;5.10;;;;;;;12.43;50.51;98370.78;5067448;28;20039;-72
2023/05/02 02:43:26;;;;;;;8.85;5.45;;;;;;;12.46;50.65;98375.66;5115307;28;20023;-71
2023/05/02 02:46:06;;;;;;;7.65;5.18;;;;;;;12.46;50.93;98378.41;5114051;28;20488;-71
2023/05/02 02:48:42;;;;;;;7.30;4.75;;;;;;;12.45;50.65;98369.34;5115112;28;20106;-72
2023/05/02 02:51:24;;;;;;;9.18;5.22;;;;;;;12.48;50.74;98373.41;5115153;28;20020;-72
2023/05/02 02:54:05;;;;;;;8.95;5.35;;;;;;;12.46;50.60;98379.22;5114932;28;20024;-72
2023/05/02 02:56:38;;;;;;;10.85;5.80;;;;;;;12.46;50.65;98379.22;5114898;28;20059;-72
2023/05/02 02:59:27;;;;;;;9.57;5.20;;;;;;;12.45;50.78;98380.34;5114928;28;20118;-71
2023/05/02 03:02:03;;;;;;;9.63;5.75;;;;;;;12.47;50.83;98380.84;5114863;28;20062;-71
2023/05/02 03:04:31;;;;;;;9.75;5.40;;;;;;;12.45;50.84;98374.03;5114630;28;20067;-71
2023/05/02 03:06:57;;;;;;;9.73;5.50;;;;;;;12.41;51.10;98387.63;5115094;28;20098;-71
2023/05/02 03:09:22;;;;;;;7.68;5.35;;;;;;;12.39;51.10;98387.09;5114839;28;20062;-72
2023/05/02 03:11:48;;;;;;;9.32;6.00;;;;;;;12.38;51.37;98390.16;5114411;28;20024;-72
2023/05/02 03:14:13;;;;;;;7.25;5.28;;;;;;;12.33;50.98;98383.63;5114513;28;20034;-72
2023/05/02 03:16:40;;;;;;;7.68;5.05;;;;;;;12.33;51.14;98388.34;5096372;28;20500;-72
2023/05/02 03:19:07;;;;;;;7.57;5.10;;;;;;;12.32;50.96;98387.50;5114577;28;20027;-72
2023/05/02 03:21:33;;;;;;;8.23;5.38;;;;;;;12.33;51.40;98388.34;5114431;28;20059;-72
2023/05/02 03:23:59;;;;;;;8.38;5.30;;;;;;;12.33;51.37;98388.34;5114445;28;20047;-71
2023/05/02 03:26:25;;;;;;;7.20;4.78;;;;;;;12.32;50.95;98394.97;5114095;28;20031;-71
2023/05/02 03:28:51;;;;;;;7.30;4.78;;;;;;;12.31;50.90;98387.84;5114456;28;20085;-71
2023/05/02 03:31:16;;;;;;;8.50;4.95;;;;;;;12.29;51.37;98376.34;5114458;28;20027;-71
2023/05/02 03:33:42;;;;;;;7.95;4.35;;;;;;;12.28;50.98;98386.50;5114168;28;20076;-71
2023/05/02 03:36:07;;;;;;;6.90;4.63;;;;;;;12.26;51.20;98382.44;5114279;28;20099;-72
2023/05/02 03:38:33;;;;;;;7.07;4.40;;;;;;;12.25;50.88;98387.13;5114148;28;20384;-72
2023/05/02 03:40:58;;;;;;;8.20;4.65;;;;;;;12.26;51.11;98379.69;5052675;28;20022;-71
2023/05/02 03:43:24;;;;;;;7.25;4.50;;;;;;;12.27;51.43;98386.81;5010607;28;20029;-72
2023/05/02 03:45:49;;;;;;;7.93;4.88;;;;;;;12.28;51.05;98392.00;5009862;28;20026;-71
2023/05/02 03:48:15;;;;;;;8.65;5.20;;;;;;;12.29;51.31;98390.09;5010920;28;20033;-72
2023/05/02 03:50:41;;;;;;;10.57;5.50;;;;;;;12.28;51.17;98397.50;5010755;28;20098;-72
2023/05/02 03:53:08;;;;;;;8.10;5.57;;;;;;;12.28;51.37;98402.19;5010664;28;20113;-72
2023/05/02 03:55:44;;;;;;;11.98;5.93;;;;;;;12.27;51.43;98404.13;5010402;28;20033;-71
2023/05/02 03:58:10;;;;;;;10.23;5.47;;;;;;;12.28;51.35;98410.44;5010759;28;20491;-71
2023/05/02 04:00:37;;;;;;;12.10;5.88;;;;;;;12.28;51.01;98403.00;5013567;28;20044;-71
2023/05/02 04:03:02;;;;;;;10.23;5.40;;;;;;;12.28;51.18;98397.50;5014502;28;20030;-71
2023/05/02 04:05:28;;;;;;;7.97;4.75;;;;;;;12.29;51.13;98406.56;5013859;28;20042;-71
2023/05/02 04:07:54;;;;;;;10.18;4.18;;;;;;;12.28;51.31;98408.50;5013648;28;20038;-71
2023/05/02 04:10:20;;;;;;;8.23;4.45;;;;;;;12.29;51.32;98409.31;5012357;28;20022;-72
2023/05/02 04:12:45;;;;;;;6.45;3.63;;;;;;;12.29;50.92;98412.88;5010523;28;20109;-71
2023/05/02 04:15:11;;;;;;;6.55;3.90;;;;;;;12.29;51.35;98414.84;5010344;28;20033;-72
2023/05/02 04:17:36;;;;;;;7.18;4.57;;;;;;;12.31;51.31;98413.38;5010560;28;20026;-72
2023/05/02 04:20:03;;;;;;;9.43;4.13;;;;;;;12.32;51.38;98419.72;5010753;28;20403;-72
2023/05/02 04:22:29;;;;;;;7.38;3.97;;;;;;;12.31;51.30;98429.88;5010309;28;20361;-71
2023/05/02 04:24:54;;;;;;;6.05;3.97;;;;;;;12.33;51.06;98429.59;5010367;28;20041;-71
2023/05/02 04:27:20;;;;;;;6.80;3.70;;;;;;;12.36;51.36;98420.72;5010480;28;20540;-71
2023/05/02 04:29:49;;;;;;;10.73;3.70;;;;;;;12.38;51.51;98429.47;5010332;28;20116;-72
2023/05/02 04:32:15;;;;;;;6.13;3.10;;;;;;;12.43;51.16;98436.78;5086418;28;20477;-72
2023/05/02 04:34:41;;;;;;;5.97;3.10;;;;;;;12.45;51.44;98432.59;5113306;28;20161;-72
2023/05/02 04:37:06;;;;;;;5.72;3.70;;;;;;;12.49;51.40;98441.06;5113389;28;20110;-72
2023/05/02 04:39:32;;;;;;;6.32;3.55;;;;;;;12.53;51.21;98441.25;5113419;28;20382;-72
2023/05/02 04:41:58;;;;;;;5.60;3.50;;;;;;;12.55;50.97;98436.25;5095235;28;20096;-71
2023/05/02 04:44:24;;;;;;;6.30;4.00;;;;;;;12.58;51.51;98438.38;5113296;28;20038;-72
2023/05/02 04:46:49;;;;;;;4.53;3.55;;;;;;;12.60;51.16;98442.47;5113501;28;20038;-71
2023/05/02 04:49:15;;;;;;;6.10;4.25;;;;;;;12.62;51.11;98437.47;5113107;28;20027;-72
2023/05/02 04:51:40;;;;;;;6.32;3.58;;;;;;;12.63;51.26;98444.56;5113243;28;20043;-72
2023/05/02 04:54:06;;;;;;;6.03;3.83;;;;;;;12.68;51.26;98445.59;5113233;28;20027;-72
2023/05/02 04:56:31;;;;;;;6.43;3.45;;;;;;;12.71;50.97;98442.22;5113314;28;20077;-72
2023/05/02 04:58:57;;;;;;;6.72;3.22;;;;;;;12.76;51.45;98447.59;5113185;28;20027;-72
2023/05/02 05:01:23;;;;;;;6.13;3.45;;;;;;;12.78;51.30;98446.19;5113202;28;20024;-71
2023/05/02 05:03:49;;;;;;;6.60;3.28;;;;;;;12.83;50.93;98449.94;5112764;28;20048;-72
2023/05/02 05:06:14;;;;;;;4.80;3.03;;;;;;;12.88;51.36;98441.53;5113091;28;20031;-72
2023/05/02 05:08:39;;;;;;;7.22;3.78;;;;;;;12.92;51.14;98448.88;5115022;28;20377;-72
2023/05/02 05:11:05;;;;;;;6.65;4.00;;;;;;;12.96;51.09;98449.06;5117141;28;20032;-71
2023/05/02 05:13:31;;;;;;;7.25;4.38;;;;;;;13.00;51.23;98450.06;5116942;28;20046;-72
2023/05/02 05:15:56;;;;;;;6.13;3.63;;;;;;;13.05;50.98;98463.72;5116964;28;20027;-71
2023/05/02 05:18:22;;;;;;;8.15;4.68;;;;;;;13.09;51.18;98455.63;5116951;28;20034;-71
2023/05/02 05:20:47;;;;;;;8.60;4.43;;;;;;;13.14;51.23;98461.00;5116885;28;20067;-71
2023/05/02 05:23:13;;;;;;;7.75;4.55;;;;;;;13.20;51.12;98454.25;5109819;28;20019;-71
2023/05/02 05:25:39;;;;;;;8.95;5.15;;;;;;;13.25;51.33;98456.88;5012993;28;20548;-72
2023/05/02 05:28:04;;;;;;;7.75;4.57;;;;;;;13.31;51.16;98454.00;5013074;28;20423;-71
2023/05/02 05:30:30;;;;;;;6.60;3.67;;;;;;;13.36;51.31;98460.19;4995437;28;20116;-71
2023/05/02 05:32:57;;;;;;;7.68;4.70;;;;;;;13.42;51.27;98460.09;5012845;28;20018;-71
2023/05/02 05:35:24;;;;;;;8.57;4.70;;;;;;;13.47;51.27;98458.00;5013038;28;20071;-71
2023/05/02 05:37:50;;;;;;;7.50;5.05;;;;;;;13.54;51.22;98454.81;5012874;28;20030;-71
2023/05/02 05:40:15;;;;;;;7.93;4.72;;;;;;;13.60;51.20;98456.31;5012717;28;20506;-72
2023/05/02 05:42:41;;;;;;;7.13;4.07;;;;;;;13.67;51.19;98448.38;5012861;28;20463;-72
2023/05/02 05:45:08;;;;;;;7.03;3.83;;;;;;;13.74;51.32;98450.69;5013102;28;20456;-71
2023/05/02 05:47:33;;;;;;;9.05;5.03;;;;;;;13.83;51.34;98456.22;5012771;28;20084;-72
2023/05/02 05:49:59;;;;;;;8.27;5.20;;;;;;;13.92;50.91;98457.09;5012722;28;20026;-72
2023/05/02 05:52:24;;;;;;;10.57;8.00;;;;;;;14.00;50.78;98455.47;5012672;28;20030;-72
2023/05/02 05:54:54;;;;;;;7.63;5.25;;;;;;;14.09;50.29;98455.50;5012500;28;20042;-72
2023/05/02 05:57:20;;;;;;;;;;;;;;;14.20;50.64;98462.38;5013086;28;20030;-72
2023/05/02 05:59:45;;;;;;;5.80;3.05;;;;;;;14.31;50.30;98464.84;5070802;28;19913;-71
2023/05/02 06:02:11;;;;;;;4.95;3.45;;;;;;;14.41;50.23;98467.28;5011285;28;20037;-71
2023/05/02 06:04:36;;;;;;;5.63;3.58;;;;;;;14.51;50.27;98471.69;5011202;28;20050;-72
2023/05/02 06:07:02;;;;;;;6.82;3.40;;;;;;;14.60;49.99;98464.25;5011364;28;20078;-72
2023/05/02 06:09:27;;;;;;;5.20;3.30;;;;;;;14.69;49.85;98467.03;5011313;28;20468;-71
2023/05/02 06:11:54;;;;;;;6.65;3.00;;;;;;;14.79;49.81;98475.00;5011155;28;20569;-71
2023/05/02 06:14:19;;;;;;;4.93;3.42;;;;;;;14.88;49.88;98481.31;5010902;28;20029;-71
2023/05/02 06:16:45;;;;;;;6.20;3.05;;;;;;;14.98;49.34;98482.97;5011073;28;20108;-71
2023/05/02 06:19:10;;;;;;;5.38;3.00;;;;;;;15.06;49.19;98484.09;5037454;28;20084;-71
2023/05/02 06:21:36;;;;;;;7.70;2.90;;;;;;;15.15;49.40;98484.91;5079464;28;20077;-72
2023/05/02 06:24:02;;;;;;;5.75;2.35;;;;;;;15.25;49.13;98496.78;5114603;28;20036;-71
2023/05/02 06:26:27;;;;;;;4.20;2.25;;;;;;;15.33;48.69;98502.28;5114426;28;20466;-72
2023/05/02 06:28:56;;;;;;;4.55;2.35;;;;;;;15.43;49.09;98500.31;5114296;28;20108;-71
2023/05/02 06:31:21;;;;;;;4.60;2.17;;;;;;;15.51;48.52;98501.44;5114386;28;20016;-71
2023/05/02 06:33:47;;;;;;;4.85;2.65;;;;;;;15.58;48.22;98499.00;5092042;28;20039;-71
2023/05/02 06:36:12;;;;;;;3.80;2.05;;;;;;;15.65;47.88;98504.81;5011015;28;20041;-72
2023/05/02 06:38:37;;;;;;;3.95;2.10;;;;;;;15.71;48.14;98506.25;5010841;28;20060;-71
2023/05/02 06:41:03;;;;;;;3.53;2.10;;;;;;;15.78;47.78;98511.28;5081939;28;20393;-71
2023/05/02 06:43:28;;;;;;;4.47;1.95;;;;;;;15.84;47.63;98507.22;5093678;28;20052;-71
2023/05/02 06:45:55;;;;;;;4.35;2.25;;;;;;;15.88;47.28;98501.84;5093690;28;20074;-72
2023/05/02 06:48:21;;;;;;;4.15;1.90;;;;;;;15.96;47.51;98512.09;5094026;28;20099;-72
2023/05/02 06:50:47;;;;;;;3.22;1.88;;;;;;;16.01;47.37;98509.13;5094744;28;20032;-72
2023/05/02 06:53:18;;;;;;;3.17;2.10;;;;;;;16.07;46.62;98510.59;5094538;28;20032;-72
2023/05/02 06:55:50;;;;;;;2.85;1.80;;;;;;;16.14;46.67;98512.00;5093696;28;20516;-71
2023/05/02 06:58:16;;;;;;;2.75;1.90;;;;;;;16.17;46.41;98517.69;5099678;28;20051;-71
2023/05/02 07:00:41;;;;;;;4.72;2.28;;;;;;;16.21;46.40;98518.66;5115082;28;20028;-71
2023/05/02 07:03:06;;;;;;;5.15;2.10;;;;;;;16.25;46.35;98527.09;5115208;28;20058;-72
2023/05/02 07:05:32;;;;;;;4.07;2.10;;;;;;;16.31;46.74;98523.00;5114676;28;20040;-71
2023/05/02 07:07:58;;;;;;;3.15;1.92;;;;;;;16.36;46.54;98531.13;5115000;28;20036;-71
2023/05/02 07:10:23;;;;;;;2.97;2.00;;;;;;;16.42;46.05;98528.16;5114611;28;20019;-72
2023/05/02 07:12:49;;;;;;;3.03;2.00;;;;;;;16.47;46.14;98533.50;5114576;28;20020;-72
2023/05/02 07:15:15;;;;;;;3.45;1.80;;;;;;;16.51;46.36;98532.50;5114562;28;20385;-71
2023/05/02 07:17:41;;;;;;;3.90;1.75;;;;;;;16.55;45.64;98534.59;5096480;28;20035;-71
2023/05/02 07:20:07;;;;;;;2.35;1.48;;;;;;;16.57;45.57;98529.53;5114287;28;20076;-72
2023/05/02 07:22:32;;;;;;;2.47;1.35;;;;;;;16.58;45.43;98545.81;5114715;28;20062;-71
2023/05/02 07:25:02;;;;;;;1.63;1.30;;;;;;;16.60;44.71;98539.94;5114416;28;20085;-71
2023/05/02 07:27:27;;;;;;;2.17;1.27;;;;;;;16.62;44.78;98552.31;5114731;28;20062;-71
2023/05/02 07:29:53;;;;;;;3.58;1.70;;;;;;;16.66;45.03;98544.94;5114246;28;20066;-71
2023/05/02 07:32:24;;;;;;;2.65;1.55;;;;;;;16.72;45.07;98553.88;5113703;28;20082;-71
2023/05/02 07:34:52;;;;;;;4.57;1.70;;;;;;;16.79;44.66;98548.63;5114189;28;20122;-71
2023/05/02 07:37:18;;;;;;;2.90;1.60;;;;;;;16.84;45.00;98553.16;5114326;28;20544;-72
2023/05/02 07:39:43;;;;;;;3.10;1.60;;;;;;;16.92;44.99;98555.03;5095879;28;20144;-71
2023/05/02 07:42:09;;;;;;;2.97;1.50;;;;;;;17.00;45.35;98560.91;5114405;28;20023;-71
2023/05/02 07:44:35;;;;;;;2.55;1.60;;;;;;;17.06;45.09;98552.06;5114002;28;20026;-71
2023/05/02 07:47:01;;;;;;;2.85;1.77;;;;;;;17.16;45.08;98563.88;5113952;28;20102;-70
2023/05/02 07:49:26;;;;;;;3.63;1.83;;;;;;;17.24;45.10;98561.06;5114094;28;20494;-71
2023/05/02 07:51:52;;;;;;;3.15;2.03;;;;;;;17.29;44.80;98562.81;5114134;28;20023;-70
2023/05/02 07:54:19;;;;;;;2.13;1.80;;;;;;;17.34;44.96;98562.59;5113808;28;20043;-70
2023/05/02 07:56:46;;;;;;;3.95;1.98;;;;;;;17.38;45.04;98563.56;5113942;28;20508;-70
2023/05/02 07:59:11;;;;;;;3.30;2.40;;;;;;;17.41;44.96;98562.03;5067371;28;20025;-70
2023/05/02 08:01:37;;;;;;;2.80;1.83;;;;;;;17.46;44.89;98569.38;5010501;28;20371;-71
2023/05/02 08:04:03;;;;;;;3.47;2.00;;;;;;;17.48;44.85;98573.41;5010256;28;20369;-71
2023/05/02 08:06:29;;;;;;;4.22;2.00;;;;;;;17.48;44.71;98567.84;5007746;28;20044;-71
2023/05/02 08:08:55;;;;;;;2.65;1.73;;;;;;;17.52;44.78;98566.03;5008754;28;20029;-71
2023/05/02 08:11:21;;;;;;;2.85;1.95;;;;;;;17.58;44.96;98574.94;5006612;28;20032;-71
2023/05/02 08:13:46;;;;;;;3.50;1.98;;;;;;;17.63;45.04;98569.19;5008836;28;20626;-71
2023/05/02 08:16:12;;;;;;;2.97;1.92;;;;;;;17.70;45.41;98571.44;5008921;28;20101;-71
2023/05/02 08:18:38;;;;;;;3.35;2.08;;;;;;;17.73;45.09;98573.50;5008938;28;20033;-71
2023/05/02 08:21:03;;;;;;;4.35;2.13;;;;;;;17.80;45.06;98572.94;5009865;28;20026;-72
2023/05/02 08:23:29;;;;;;;3.92;2.35;;;;;;;17.83;44.82;98559.19;4991855;28;20456;-72
2023/05/02 08:25:54;;;;;;;3.25;2.22;;;;;;;17.87;44.98;98564.88;5009789;28;20037;-73
2023/05/02 08:28:20;;;;;;;2.80;2.10;;;;;;;17.91;45.11;98585.25;5009930;28;20437;-75
2023/05/02 08:30:45;;;;;;;3.97;2.47;;;;;;;17.95;44.98;98577.84;5010142;28;20033;-74
2023/05/02 08:33:10;;;;;;;5.45;2.58;;;;;;;18.00;44.97;98579.63;5009407;28;20034;-73
2023/05/02 08:35:36;;;;;;;3.90;3.00;;;;;;;18.06;45.09;98581.03;5008533;28;20034;-74
2023/05/02 08:38:02;;;;;;;4.30;2.70;;;;;;;18.08;45.20;98584.28;4991274;28;20467;-74
2023/05/02 08:40:27;;;;;;;2.65;2.35;;;;;;;18.12;45.16;98584.41;4992104;28;20030;-74
2023/05/02 08:42:53;;;;;;;5.07;2.75;;;;;;;18.18;45.32;98583.03;5010771;28;20499;-73
2023/05/02 08:45:21;;;;;;;3.90;2.63;;;;;;;18.23;45.42;98579.19;5010271;28;20025;-73
2023/05/02 08:47:48;;;;;;;4.13;2.70;;;;;;;18.25;45.26;98591.59;5013383;28;20034;-73
2023/05/02 08:50:17;;;;;;;4.80;3.00;;;;;;;18.30;45.28;98585.81;5013434;28;20033;-74
2023/05/02 08:52:44;;;;;;;3.60;2.63;;;;;;;18.33;45.39;98583.50;5012968;28;20470;-74
2023/05/02 08:55:11;;;;;;;6.10;2.97;;;;;;;18.35;45.55;98589.50;5012855;28;20527;-72
2023/05/02 08:57:38;;;;;;;4.00;2.83;;;;;;;18.39;45.57;98579.34;5012831;28;20471;-72
2023/05/02 09:00:05;;;;;;;2.60;2.40;;;;;;;18.41;45.47;98572.28;5012915;28;20026;-73
2023/05/02 09:03:17;;;;;;;5.10;2.90;;;;;;;18.46;45.65;98579.56;4995499;28;20030;-72
2023/05/02 09:05:50;;;;;;;7.75;2.90;;;;;;;18.52;45.79;98580.97;5012444;28;20046;-73
2023/05/02 09:08:23;;;;;;;5.28;3.00;;;;;;;18.58;45.80;98593.47;4995908;28;20037;-72
2023/05/02 09:10:52;;;;;;;3.75;3.03;;;;;;;18.62;45.87;98581.69;5012066;28;20026;-71
2023/05/02 09:13:34;;;;;;;4.20;3.00;;;;;;;18.64;45.71;98590.47;5009621;28;20394;-72
2023/05/02 09:16:11;;;;;;;4.25;3.40;;;;;;;18.66;45.92;98600.06;4995471;28;20068;-72
2023/05/02 09:18:40;;;;;;;4.82;3.28;;;;;;;18.71;46.05;98596.28;5011107;28;20075;-72
2023/05/02 09:21:08;;;;;;;3.72;3.30;;;;;;;18.79;45.95;98591.75;5011487;28;20480;-72
2023/05/02 09:23:45;;;;;;;5.30;3.20;;;;;;;18.89;45.97;98594.84;5011533;28;20036;-72
2023/05/02 09:26:17;;;;;;;4.57;3.30;;;;;;;18.95;45.81;98609.31;5011019;28;20022;-72
2023/05/02 09:28:53;;;;;;;5.85;2.67;;;;;;;18.98;45.69;98596.72;5011342;28;20034;-72
2023/05/02 09:31:21;;;;;;;5.28;3.33;;;;;;;19.03;45.66;98610.41;5011644;28;20047;-72
2023/05/02 09:33:47;;;;;;;5.75;3.17;;;;;;;19.02;45.66;98598.44;4994085;28;20034;-72
2023/05/02 09:36:15;;;;;;;6.90;3.30;;;;;;;19.07;45.93;98604.94;5011941;28;20126;-73
2023/05/02 09:38:45;;;;;;;7.32;3.17;;;;;;;19.12;45.33;98607.47;5011563;28;20056;-72
2023/05/02 09:41:11;;;;;;;6.32;3.17;;;;;;;19.12;45.12;98610.25;5011872;28;20026;-72
2023/05/02 09:43:37;;;;;;;4.22;3.08;;;;;;;19.12;45.17;98613.03;5011093;28;20026;-72
2023/05/02 09:46:05;;;;;;;4.15;3.20;;;;;;;19.10;45.46;98609.81;5011091;28;20429;-74
2023/05/02 09:48:32;;;;;;;5.15;3.50;;;;;;;19.13;45.30;98611.88;5011750;28;20129;-72
2023/05/02 09:50:58;;;;;;;3.30;3.00;;;;;;;19.13;45.44;98611.88;5011244;28;20022;-73
2023/05/02 09:53:26;;;;;;;3.10;2.83;;;;;;;19.17;45.49;98615.59;5011040;28;20033;-72
2023/05/02 09:56:03;;;;;;;3.63;3.20;;;;;;;19.22;45.45;98623.69;5011429;28;20025;-73
2023/05/02 09:58:32;;;;;;;3.80;3.40;;;;;;;19.25;45.45;98620.22;5011000;28;20388;-72
2023/05/02 10:00:58;;;;;;;3.87;3.20;;;;;;;19.31;45.48;98616.03;5009622;28;20034;-73
2023/05/02 10:03:26;;;;;;;3.60;2.90;;;;;;;19.42;45.55;98610.78;5009754;28;20032;-72
2023/05/02 10:05:53;;;;;;;3.53;3.00;;;;;;;19.51;45.42;98610.63;5010529;28;20484;-72
2023/05/02 10:08:20;;;;;;;3.33;3.00;;;;;;;19.57;45.28;98613.97;4993199;28;20497;-72
2023/05/02 10:10:56;;;;;;;3.78;2.78;;;;;;;19.65;45.24;98621.34;5010906;28;20029;-72
2023/05/02 10:13:25;;;;;;;5.18;3.10;;;;;;;19.69;45.03;98613.94;5006447;28;20030;-73
2023/05/02 10:16:00;;;;;;;3.92;3.20;;;;;;;19.73;45.11;98620.41;5011252;28;20030;-73
2023/05/02 10:18:28;;;;;;;19.55;4.13;;;;;;;19.75;44.70;98629.22;5010629;28;20506;-72
2023/05/02 10:21:06;;;;;;;4.18;3.13;;;;;;;19.76;44.81;98630.03;5009323;28;20033;-72
2023/05/02 10:23:33;;;;;;;4.63;3.38;;;;;;;19.82;44.46;98628.59;5011121;28;20073;-73
2023/05/02 10:25:59;;;;;;;5.47;3.50;;;;;;;19.86;44.71;98632.28;5010532;28;20036;-72
2023/05/02 10:28:28;;;;;;;3.97;3.38;;;;;;;19.89;44.45;98634.41;5010907;28;20112;-73
2023/05/02 10:30:55;;;;;;;5.40;3.40;;;;;;;19.93;44.51;98629.75;5010781;28;20105;-73
2023/05/02 10:33:22;;;;;;;3.50;3.17;;;;;;;19.97;44.39;98634.59;5011033;28;20102;-73
2023/05/02 10:35:49;;;;;;;5.55;4.13;;;;;;;20.00;44.48;98634.69;5009676;28;20038;-72
2023/05/02 10:38:18;;;;;;;3.60;3.30;;;;;;;20.02;44.45;98631.56;5011299;28;20552;-73
2023/05/02 10:41:15;;;;;;;3.92;3.50;;;;;;;20.06;44.39;98649.19;5010992;28;20365;-72
2023/05/02 10:43:46;;;;;;;4.97;3.40;;;;;;;20.09;44.34;98640.13;5015586;28;20400;-71
2023/05/02 10:46:34;;;;;;;4.47;3.40;;;;;;;20.11;44.53;98648.94;5010633;28;20049;-73
2023/05/02 10:49:07;;;;;;;4.05;3.47;;;;;;;20.14;44.06;98641.81;5010395;28;20026;-71
2023/05/02 10:51:35;;;;;;;4.07;3.47;;;;;;;20.15;44.24;98641.50;5008697;28;20064;-72
2023/05/02 10:54:16;;;;;;;3.93;3.30;;;;;;;20.19;44.23;98641.56;5010529;28;20053;-72
2023/05/02 10:59:29;;;;;;;8.30;3.97;;;;;;;20.22;44.02;98647.22;4992985;28;20437;-72
2023/05/02 11:01:55;;;;;;;3.50;3.20;;;;;;;20.19;44.06;98658.28;5010445;28;20026;-72
2023/05/02 11:04:21;;;;;;;5.40;3.50;;;;;;;20.14;43.72;98653.78;5009945;28;20130;-71
2023/05/02 11:06:55;;;;;;;4.30;3.70;;;;;;;20.05;43.95;98653.94;5009336;28;20113;-71
2023/05/02 11:09:21;;;;;;;5.57;4.13;;;;;;;20.00;44.07;98656.97;5007794;28;20033;-71
2023/05/02 11:11:55;;;;;;;6.63;4.18;;;;;;;19.92;43.96;98666.28;5008882;28;20087;-69
2023/05/02 11:14:29;;;;;;;3.63;3.30;;;;;;;19.84;44.06;98659.66;4995626;28;20075;-70
2023/05/02 11:16:58;;;;;;;3.60;3.30;;;;;;;19.81;44.22;98654.81;5009191;28;20032;-69
2023/05/02 11:19:28;;;;;;;6.07;3.90;;;;;;;19.81;44.39;98657.59;5009703;28;20037;-69
2023/05/02 11:22:20;;;;;;;5.28;4.07;;;;;;;19.78;44.39;98659.13;5009811;28;20116;-69
2023/05/02 11:24:47;;;;;;;5.43;4.03;;;;;;;19.75;44.54;98661.81;5016203;28;20034;-71
2023/05/02 11:27:27;;;;;;;4.68;3.72;;;;;;;19.70;44.71;98673.97;5010253;28;20025;-71
2023/05/02 11:30:06;;;;;;;6.03;4.60;;;;;;;19.62;44.72;98674.91;5010113;28;20024;-71
2023/05/02 11:32:48;;;;;;;5.82;4.55;;;;;;;19.51;44.86;98680.16;5010518;28;20109;-72
2023/05/02 11:35:31;;;;;;;8.93;4.80;;;;;;;19.42;44.74;98676.69;4994199;28;20407;-71
2023/05/02 11:37:59;;;;;;;7.18;5.00;;;;;;;19.36;44.90;98675.34;5010273;28;20045;-72
2023/05/02 11:40:25;;;;;;;7.30;5.43;;;;;;;19.22;45.06;98679.28;5009936;28;20022;-71
2023/05/02 11:42:51;;;;;;;6.45;5.00;;;;;;;19.14;45.28;98689.38;5009733;28;20037;-72